createdAt,value
2022-11-18T00:00:10.250Z,7.50
2022-11-18T00:02:40.546Z,7.77
2022-11-18T00:05:09.657Z,8.47
2022-11-18T00:07:38.451Z,7.70
2022-11-18T00:10:08.011Z,7.87
2022-11-18T00:13:05.865Z,8.60
2022-11-18T00:15:34.608Z,8.33
2022-11-18T00:18:04.888Z,8.53
2022-11-18T00:20:35.235Z,7.70
2022-11-18T00:23:04.021Z,8.03
2022-11-18T00:25:34.915Z,8.47
2022-11-18T00:28:03.649Z,8.07
2022-11-18T00:30:32.379Z,7.60
2022-11-18T00:33:01.133Z,8.17
2022-11-18T00:35:31.249Z,8.67
2022-11-18T00:37:59.965Z,8.03
2022-11-18T00:40:28.692Z,8.53
2022-11-18T00:42:56.439Z,7.90
2022-11-18T00:45:25.734Z,8.37
2022-11-18T00:47:54.444Z,8.13
2022-11-18T00:50:23.138Z,8.40
2022-11-18T00:52:53.271Z,7.90
2022-11-18T00:55:21.989Z,8.17
2022-11-18T00:57:50.720Z,8.40
2022-11-18T01:00:20.626Z,8.33
2022-11-18T01:02:49.689Z,8.10
2022-11-18T01:05:18.984Z,8.10
2022-11-18T01:07:48.408Z,8.37
2022-11-18T01:10:19.364Z,8.03
2022-11-18T01:13:06.065Z,7.97
2022-11-18T01:15:41.133Z,8.37
2022-11-18T01:18:09.980Z,8.37
2022-11-18T01:20:39.337Z,8.53
2022-11-18T01:23:08.019Z,8.03
2022-11-18T01:25:40.847Z,8.07
2022-11-18T01:28:09.717Z,8.10
2022-11-18T01:30:41.616Z,8.13
2022-11-18T01:33:10.604Z,7.80
2022-11-18T01:35:41.934Z,8.20
2022-11-18T01:38:12.951Z,7.93
2022-11-18T01:40:43.490Z,8.33
2022-11-18T01:43:17.653Z,8.37
2022-11-18T01:45:50.075Z,8.33
2022-11-18T01:48:24.887Z,7.90
2022-11-18T01:50:59.338Z,8.23
2022-11-18T01:53:34.949Z,8.17
2022-11-18T01:56:13.575Z,8.03
2022-11-18T01:58:51.389Z,8.57
2022-11-18T02:01:20.998Z,8.53
2022-11-18T02:03:51.759Z,8.70
2022-11-18T02:06:21.118Z,8.87
2022-11-18T02:08:51.947Z,8.30
2022-11-18T02:11:39.494Z,8.27
2022-11-18T02:14:11.593Z,8.70
2022-11-18T02:16:58.019Z,8.50
2022-11-18T02:20:00.727Z,8.53
2022-11-18T02:22:53.920Z,8.70
2022-11-18T02:25:41.026Z,8.60
2022-11-18T02:28:38.239Z,8.73
2022-11-18T02:31:17.325Z,8.90
2022-11-18T02:33:56.512Z,9.07
2022-11-18T02:36:41.421Z,8.53
2022-11-18T02:39:18.342Z,8.90
2022-11-18T02:41:50.960Z,9.17
2022-11-18T02:44:24.093Z,9.53
2022-11-18T02:47:02.084Z,9.57
2022-11-18T02:49:39.097Z,10.33
2022-11-18T02:52:12.169Z,9.70
2022-11-18T02:54:44.537Z,9.40
2022-11-18T02:57:16.634Z,11.03
2022-11-18T02:59:45.380Z,10.33
2022-11-18T03:02:19.992Z,11.20
2022-11-18T03:04:54.223Z,10.80
2022-11-18T03:07:31.291Z,11.77
2022-11-18T03:10:02.396Z,11.73
2022-11-18T03:12:44.440Z,11.50
2022-11-18T03:15:28.183Z,12.13
2022-11-18T03:18:08.774Z,12.97
2022-11-18T03:20:46.490Z,12.67
2022-11-18T03:23:26.496Z,13.03
2022-11-18T03:26:01.547Z,12.50
2022-11-18T03:28:41.337Z,12.90
2022-11-18T03:31:20.944Z,12.50
2022-11-18T03:33:57.740Z,12.17
2022-11-18T03:36:34.776Z,12.13
2022-11-18T03:39:07.888Z,12.50
2022-11-18T03:41:57.606Z,12.50
2022-11-18T03:44:34.072Z,12.70
2022-11-18T03:47:09.873Z,11.77
2022-11-18T03:49:46.938Z,11.77
2022-11-18T03:52:21.842Z,12.60
2022-11-18T03:54:57.106Z,12.37
2022-11-18T03:57:35.981Z,12.23
2022-11-18T04:00:10.055Z,11.60
2022-11-18T04:02:39.832Z,11.20
2022-11-18T04:05:14.700Z,11.20
2022-11-18T04:07:57.541Z,12.30
2022-11-18T04:10:34.466Z,12.43
2022-11-18T04:13:09.203Z,12.67
2022-11-18T04:15:40.632Z,11.57
2022-11-18T04:18:10.659Z,13.00
2022-11-18T04:20:41.285Z,12.97
2022-11-18T04:23:10.501Z,13.70
2022-11-18T04:25:39.489Z,12.50
2022-11-18T04:28:08.335Z,11.23
2022-11-18T04:30:37.538Z,11.63
2022-11-18T04:33:06.483Z,11.20
2022-11-18T04:35:35.182Z,10.97
2022-11-18T04:38:06.430Z,11.10
2022-11-18T04:40:35.168Z,11.07
2022-11-18T04:43:04.178Z,11.00
2022-11-18T04:45:32.858Z,12.10
2022-11-18T04:48:03.823Z,11.77
2022-11-18T04:50:32.739Z,12.77
2022-11-18T04:53:01.518Z,12.23
2022-11-18T04:55:31.626Z,11.80
2022-11-18T04:58:00.411Z,12.80
2022-11-18T05:00:29.368Z,12.37
2022-11-18T05:02:58.164Z,12.20
2022-11-18T05:05:27.196Z,12.93
2022-11-18T05:07:55.978Z,12.40
2022-11-18T05:10:25.981Z,11.97
2022-11-18T05:17:57.363Z,12.50
2022-11-18T05:20:24.850Z,13.43
2022-11-18T05:22:53.633Z,12.80
2022-11-18T05:25:22.531Z,12.37
2022-11-18T05:27:51.316Z,13.60
2022-11-18T05:30:23.336Z,13.77
2022-11-18T05:32:52.102Z,12.17
2022-11-18T05:35:22.235Z,13.00
2022-11-18T05:37:51.284Z,12.73
2022-11-18T05:40:20.184Z,13.47
2022-11-18T05:43:06.670Z,12.67
2022-11-18T05:45:35.562Z,13.20
2022-11-18T05:48:05.669Z,13.97
2022-11-18T05:50:39.760Z,12.87
2022-11-18T05:53:08.538Z,13.93
2022-11-18T05:55:43.473Z,12.77
2022-11-18T05:58:12.128Z,13.73
2022-11-18T06:00:41.625Z,14.37
2022-11-18T06:03:26.116Z,15.57
2022-11-18T06:06:03.108Z,16.87
2022-11-18T06:08:41.005Z,14.27
2022-11-18T06:11:16.006Z,13.63
2022-11-18T06:13:51.737Z,13.97
2022-11-18T06:16:27.869Z,13.03
2022-11-18T06:18:57.242Z,12.43
2022-11-18T06:21:27.722Z,13.83
2022-11-18T06:23:57.047Z,12.93
2022-11-18T06:26:25.980Z,13.57
2022-11-18T06:28:56.725Z,15.47
2022-11-18T06:31:25.417Z,12.37
2022-11-18T06:33:54.160Z,12.57
2022-11-18T06:36:22.895Z,11.87
2022-11-18T06:38:52.967Z,12.03
2022-11-18T06:41:21.736Z,13.03
2022-11-18T06:43:49.394Z,12.93
2022-11-18T06:46:36.558Z,11.97
2022-11-18T06:49:05.688Z,13.03
2022-11-18T06:51:34.453Z,12.53
2022-11-18T06:54:09.204Z,13.60
2022-11-18T06:56:39.843Z,13.27
2022-11-18T06:59:08.560Z,12.67
2022-11-18T07:01:40.051Z,12.97
2022-11-18T07:04:08.879Z,13.17
2022-11-18T07:06:38.661Z,12.87
2022-11-18T07:09:09.270Z,12.53
2022-11-18T07:11:40.461Z,13.03
2022-11-18T07:14:09.724Z,13.53
2022-11-18T07:16:38.954Z,12.90
2022-11-18T07:19:12.111Z,12.50
2022-11-18T07:21:42.712Z,12.57
2022-11-18T07:24:16.335Z,11.60
2022-11-18T07:26:45.344Z,11.63
2022-11-18T07:29:14.170Z,11.27
2022-11-18T07:31:42.908Z,10.87
2022-11-18T07:34:11.720Z,10.83
2022-11-18T07:36:40.733Z,11.23
2022-11-18T07:44:12.902Z,10.93
2022-11-18T07:46:42.242Z,11.30
2022-11-18T07:49:12.839Z,10.90
2022-11-18T07:51:42.179Z,10.70
2022-11-18T07:54:13.311Z,9.87
2022-11-18T07:56:42.197Z,12.77
2022-11-18T07:59:11.205Z,11.33
2022-11-18T08:01:41.428Z,10.53
2022-11-18T08:04:15.353Z,10.23
2022-11-18T08:06:44.059Z,10.63
2022-11-18T08:09:13.525Z,10.77
2022-11-18T08:11:42.331Z,11.00
2022-11-18T08:14:11.157Z,11.37
2022-11-18T08:16:41.274Z,12.40
2022-11-18T08:19:09.969Z,11.17
2022-11-18T08:21:38.750Z,11.60
2022-11-18T08:24:08.172Z,10.70
2022-11-18T08:26:37.104Z,14.30
2022-11-18T08:29:05.885Z,10.00
2022-11-18T08:31:34.613Z,9.97
2022-11-18T08:34:07.626Z,11.03
2022-11-18T08:36:39.273Z,11.03
2022-11-18T08:39:12.780Z,10.70
2022-11-18T08:41:44.031Z,9.77
2022-11-18T08:44:15.888Z,9.70
2022-11-18T08:46:46.111Z,8.63
2022-11-18T08:49:16.817Z,8.70
2022-11-18T08:51:45.930Z,8.90
2022-11-18T08:54:14.859Z,8.43
2022-11-18T08:56:43.610Z,8.63
2022-11-18T08:59:14.773Z,8.67
2022-11-18T09:01:43.768Z,7.80
2022-11-18T09:04:12.768Z,6.97
2022-11-18T09:06:42.924Z,7.47
2022-11-18T09:09:12.082Z,8.70
2022-11-18T09:11:42.486Z,8.33
2022-11-18T09:15:11.630Z,8.80
2022-11-18T09:17:02.972Z,8.60
2022-11-18T09:19:46.767Z,8.83
2022-11-18T09:22:17.986Z,10.20
2022-11-18T09:24:46.716Z,9.90
2022-11-18T09:27:17.494Z,10.67
2022-11-18T09:29:47.076Z,10.73
2022-11-18T09:32:15.886Z,11.80
2022-11-18T09:34:44.738Z,11.43
2022-11-18T09:37:13.586Z,12.17
2022-11-18T09:39:43.764Z,11.97
2022-11-18T09:42:35.473Z,13.67
2022-11-18T09:45:23.629Z,13.80
2022-11-18T09:47:55.978Z,14.47
2022-11-18T09:53:21.911Z,15.43
2022-11-18T09:55:54.209Z,15.77
2022-11-18T09:58:35.356Z,15.23
2022-11-18T10:01:10.191Z,16.03
2022-11-18T10:03:41.699Z,16.13
2022-11-18T10:13:43.486Z,15.87
2022-11-18T10:16:30.488Z,15.40
2022-11-18T10:19:11.094Z,14.60
2022-11-18T10:21:58.608Z,15.30
2022-11-18T10:24:34.719Z,15.20
2022-11-18T10:27:03.811Z,17.17
2022-11-18T10:29:33.966Z,16.40
2022-11-18T10:32:06.304Z,16.63
2022-11-18T10:34:48.911Z,16.37
2022-11-18T10:37:45.296Z,15.83
2022-11-18T10:40:28.539Z,17.70
2022-11-18T10:42:57.889Z,17.50
2022-11-18T10:45:31.363Z,17.47
2022-11-18T10:48:09.882Z,18.23
2022-11-18T10:50:42.206Z,17.43
2022-11-18T10:53:32.759Z,19.00
2022-11-18T10:56:04.172Z,17.57
2022-11-18T10:58:38.229Z,17.83
2022-11-18T11:01:15.485Z,17.57
2022-11-18T11:04:02.134Z,18.07
2022-11-18T11:06:38.210Z,17.03
2022-11-18T11:09:29.017Z,17.73
2022-11-18T11:12:04.025Z,17.40
2022-11-18T11:14:51.180Z,16.67
2022-11-18T11:17:32.263Z,14.23
2022-11-18T11:20:11.694Z,15.20
2022-11-18T11:22:41.823Z,13.40
2022-11-18T11:25:17.155Z,12.97
2022-11-18T11:30:52.399Z,10.60
2022-11-18T11:33:34.455Z,10.10
2022-11-18T11:36:43.360Z,10.00
2022-11-18T11:40:01.766Z,7.83
2022-11-18T11:42:48.772Z,7.63
2022-11-18T11:45:33.241Z,7.93
2022-11-18T11:48:32.282Z,8.40
2022-11-18T11:51:08.382Z,7.57
2022-11-18T11:54:41.477Z,7.60
2022-11-18T11:57:24.794Z,8.13
2022-11-18T12:00:03.901Z,8.33
2022-11-18T12:03:02.004Z,9.67
2022-11-18T12:05:37.048Z,10.63
2022-11-18T12:08:14.143Z,10.20
2022-11-18T12:10:51.824Z,11.10
2022-11-18T12:13:37.889Z,11.50
2022-11-18T12:16:28.105Z,10.80
2022-11-18T12:19:02.460Z,10.70
2022-11-18T12:22:00.758Z,11.10
2022-11-18T12:24:34.465Z,10.60
2022-11-18T12:27:12.560Z,12.23
2022-11-18T12:29:55.982Z,12.40
2022-11-18T12:32:36.711Z,12.97
2022-11-18T12:35:26.256Z,13.73
2022-11-18T12:38:05.436Z,13.43
2022-11-18T12:40:47.229Z,15.97
2022-11-18T12:44:07.391Z,16.00
2022-11-18T12:47:00.808Z,16.50
2022-11-18T12:50:14.322Z,16.70
2022-11-18T12:52:57.017Z,17.83
2022-11-18T12:55:39.390Z,18.30
2022-11-18T12:58:25.725Z,17.60
2022-11-18T13:01:09.478Z,18.43
2022-11-18T13:03:38.263Z,18.03
2022-11-18T13:06:21.803Z,18.17
2022-11-18T13:08:55.929Z,17.30
2022-11-18T13:11:46.870Z,17.80
2022-11-18T13:14:41.841Z,17.80
2022-11-18T13:17:49.073Z,17.13
2022-11-18T13:20:31.131Z,18.53
2022-11-18T13:23:19.968Z,17.47
2022-11-18T13:25:51.434Z,18.20
2022-11-18T13:28:33.266Z,18.43
2022-11-18T13:31:10.918Z,18.37
2022-11-18T13:33:42.096Z,18.80
2022-11-18T13:36:19.609Z,19.60
2022-11-18T13:38:58.613Z,19.30
2022-11-18T13:41:32.802Z,19.57
2022-11-18T13:44:20.707Z,19.67
2022-11-18T13:46:53.992Z,19.77
2022-11-18T13:49:50.368Z,20.70
2022-11-18T13:52:25.963Z,20.23
2022-11-18T13:54:57.181Z,20.40
2022-11-18T13:57:29.664Z,19.80
2022-11-18T14:00:07.137Z,19.57
2022-11-18T14:02:46.411Z,18.73
2022-11-18T14:05:22.003Z,18.83
2022-11-18T14:08:06.214Z,19.03
2022-11-18T14:10:43.918Z,19.10
2022-11-18T14:13:26.110Z,18.83
2022-11-18T14:15:59.702Z,19.57
2022-11-18T14:18:34.151Z,19.40
2022-11-18T14:21:06.564Z,19.77
2022-11-18T14:23:38.154Z,19.93
2022-11-18T14:26:09.037Z,18.37
2022-11-18T14:28:39.724Z,18.80
2022-11-18T14:31:27.263Z,18.37
2022-11-18T14:34:17.585Z,18.73
2022-11-18T14:36:47.904Z,18.80
2022-11-18T14:39:31.578Z,20.03
2022-11-18T14:42:01.871Z,20.17
2022-11-18T14:44:30.798Z,19.77
2022-11-18T14:47:21.174Z,19.47
2022-11-18T14:49:50.120Z,19.23
2022-11-18T14:52:18.835Z,19.43
2022-11-18T14:54:48.858Z,20.20
2022-11-18T14:57:19.193Z,19.37
2022-11-18T14:59:48.108Z,20.23
2022-11-18T15:02:19.653Z,21.37
2022-11-18T15:04:50.817Z,20.40
2022-11-18T15:07:23.945Z,21.27
2022-11-18T15:09:53.175Z,21.67
2022-11-18T15:12:22.009Z,21.60
2022-11-18T15:14:50.955Z,22.17
2022-11-18T15:17:21.122Z,22.30
2022-11-18T15:19:49.918Z,21.83
2022-11-18T15:22:18.688Z,21.50
2022-11-18T15:24:47.356Z,21.57
2022-11-18T15:27:16.139Z,21.93
2022-11-18T15:29:44.940Z,22.80
2022-11-18T15:32:13.648Z,23.57
2022-11-18T15:34:43.791Z,22.50
2022-11-18T15:37:13.983Z,23.37
2022-11-18T15:39:42.897Z,22.30
2022-11-18T15:42:12.255Z,21.27
2022-11-18T15:44:41.074Z,23.10
2022-11-18T15:47:09.820Z,22.63
2022-11-18T15:49:43.176Z,22.27
2022-11-18T15:52:13.979Z,23.90
2022-11-18T15:54:42.780Z,22.30
2022-11-18T15:57:11.726Z,22.57
2022-11-18T15:59:40.850Z,22.00
2022-11-18T16:02:12.053Z,23.13
2022-11-18T16:04:41.177Z,23.27
2022-11-18T16:07:10.183Z,22.73
2022-11-18T16:09:57.835Z,23.37
2022-11-18T16:12:44.198Z,21.70
2022-11-18T16:15:30.430Z,21.80
2022-11-18T16:17:59.580Z,24.57
2022-11-18T16:20:29.170Z,22.40
2022-11-18T16:23:00.697Z,25.63
2022-11-18T16:25:30.892Z,25.13
2022-11-18T16:28:06.814Z,23.50
2022-11-18T16:31:02.387Z,22.73
2022-11-18T16:33:31.250Z,23.03
2022-11-18T16:36:00.147Z,22.10
2022-11-18T16:38:28.974Z,22.67
2022-11-18T16:41:00.625Z,22.70
2022-11-18T16:43:29.535Z,23.17
2022-11-18T16:45:58.204Z,23.67
2022-11-18T16:48:26.895Z,23.47
2022-11-18T16:51:20.383Z,23.80
2022-11-18T16:53:54.023Z,23.40
2022-11-18T16:56:26.959Z,24.40
2022-11-18T16:58:59.643Z,24.20
2022-11-18T17:01:30.544Z,23.70
2022-11-18T17:04:01.395Z,23.67
2022-11-18T17:06:32.695Z,24.63
2022-11-18T17:09:01.655Z,24.80
2022-11-18T17:11:32.835Z,24.63
2022-11-18T17:14:03.473Z,23.93
2022-11-18T17:16:32.456Z,24.17
2022-11-18T17:19:10.189Z,23.97
2022-11-18T17:21:40.901Z,23.63
2022-11-18T17:24:12.152Z,23.30
2022-11-18T17:26:43.257Z,24.10
2022-11-18T17:29:15.034Z,21.70
2022-11-18T17:31:44.293Z,23.00
2022-11-18T17:34:15.552Z,21.27
2022-11-18T17:36:45.298Z,21.27
2022-11-18T17:39:16.129Z,24.90
2022-11-18T17:42:07.539Z,21.67
2022-11-18T17:44:36.490Z,26.80
2022-11-18T17:47:05.996Z,22.40
2022-11-18T17:49:34.837Z,18.83
2022-11-18T17:52:03.780Z,18.53
2022-11-18T17:54:32.891Z,18.77
2022-11-18T17:57:03.174Z,18.17
2022-11-18T17:59:32.908Z,21.03
2022-11-18T18:02:02.123Z,19.07
2022-11-18T18:04:31.013Z,19.70
2022-11-18T18:06:59.909Z,19.10
2022-11-18T18:09:31.296Z,19.03
2022-11-18T18:12:23.556Z,18.27
2022-11-18T18:14:52.588Z,17.47
2022-11-18T18:17:22.018Z,17.27
2022-11-18T18:19:50.712Z,17.47
2022-11-18T18:22:19.483Z,16.37
2022-11-18T18:24:48.396Z,15.43
2022-11-18T18:27:18.866Z,15.00
2022-11-18T18:29:47.644Z,16.23
2022-11-18T18:32:16.439Z,16.03
2022-11-18T18:34:45.127Z,14.70
2022-11-18T18:37:14.968Z,14.60
2022-11-18T18:39:43.778Z,13.90
2022-11-18T18:42:12.613Z,14.50
2022-11-18T18:45:00.521Z,17.63
2022-11-18T18:47:29.694Z,14.63
2022-11-18T18:49:58.691Z,14.17
2022-11-18T18:52:27.600Z,13.90
2022-11-18T18:54:56.834Z,12.57
2022-11-18T18:57:26.439Z,12.70
2022-11-18T18:59:56.555Z,12.10
2022-11-18T19:02:25.304Z,12.37
2022-11-18T19:04:55.561Z,11.73
2022-11-18T19:07:24.518Z,13.80
2022-11-18T19:09:53.352Z,11.23
2022-11-18T19:12:40.561Z,12.23
2022-11-18T19:15:12.945Z,12.47
2022-11-18T19:17:42.681Z,11.83
2022-11-18T19:20:31.749Z,11.60
2022-11-18T19:23:05.612Z,11.03
2022-11-18T19:25:37.878Z,9.90
2022-11-18T19:28:06.972Z,9.87
2022-11-18T19:30:37.153Z,8.77
2022-11-18T19:33:06.085Z,10.30
2022-11-18T19:35:35.114Z,10.70
2022-11-18T19:38:03.845Z,9.80
2022-11-18T19:40:32.511Z,9.33
2022-11-18T19:43:01.219Z,9.10
2022-11-18T19:45:30.156Z,9.23
2022-11-18T19:48:01.850Z,8.90
2022-11-18T19:50:30.900Z,9.27
2022-11-18T19:53:19.733Z,8.53
2022-11-18T19:55:55.955Z,8.70
2022-11-18T19:58:26.080Z,8.53
2022-11-18T20:00:55.236Z,8.23
2022-11-18T20:03:25.606Z,8.50
2022-11-18T20:05:54.331Z,8.50
2022-11-18T20:08:25.411Z,7.77
2022-11-18T20:10:54.848Z,8.07
2022-11-18T20:13:23.724Z,9.70
2022-11-18T20:15:53.066Z,8.20
2022-11-18T20:18:23.285Z,8.67
2022-11-18T20:20:53.634Z,7.73
2022-11-18T20:23:22.566Z,7.77
2022-11-18T20:25:51.514Z,7.80
2022-11-18T20:28:20.356Z,7.30
2022-11-18T20:30:53.928Z,7.90
2022-11-18T20:33:23.071Z,7.43
2022-11-18T20:35:53.379Z,7.23
2022-11-18T20:38:22.200Z,6.67
2022-11-18T20:40:51.600Z,7.03
2022-11-18T20:43:21.825Z,7.17
2022-11-18T20:45:56.113Z,6.87
2022-11-18T20:48:25.607Z,6.97
2022-11-18T20:50:55.943Z,7.43
2022-11-18T20:53:26.732Z,7.73
2022-11-18T20:55:56.087Z,7.90
2022-11-18T20:58:25.460Z,7.87
2022-11-18T21:01:01.568Z,7.97
2022-11-18T21:03:31.252Z,8.33
2022-11-18T21:06:12.504Z,8.67
2022-11-18T21:08:43.772Z,8.20
2022-11-18T21:11:14.583Z,8.00
2022-11-18T21:14:01.062Z,8.07
2022-11-18T21:16:38.779Z,7.57
2022-11-18T21:19:17.021Z,7.93
2022-11-18T21:21:49.230Z,8.13
2022-11-18T21:24:20.718Z,7.43
2022-11-18T21:26:54.518Z,7.47
2022-11-18T21:29:25.927Z,7.90
2022-11-18T21:31:55.594Z,7.87
2022-11-18T21:34:24.974Z,7.90
2022-11-18T21:36:55.559Z,8.10
2022-11-18T21:39:25.478Z,7.70
2022-11-18T21:41:57.287Z,8.47
2022-11-18T21:44:28.189Z,8.37
2022-11-18T21:46:58.685Z,9.13
2022-11-18T21:49:27.860Z,8.57
2022-11-18T21:51:57.962Z,8.70
2022-11-18T21:54:26.751Z,8.83
2022-11-18T21:56:55.645Z,9.00
2022-11-18T21:59:24.431Z,8.83
2022-11-18T22:02:07.309Z,8.87
2022-11-18T22:04:53.754Z,9.20
2022-11-18T22:07:25.572Z,8.30
2022-11-18T22:09:55.299Z,9.00
2022-11-18T22:12:24.130Z,8.73
2022-11-18T22:14:52.962Z,8.93
2022-11-18T22:17:21.722Z,9.90
2022-11-18T22:19:50.421Z,10.00
2022-11-18T22:22:19.182Z,10.63
2022-11-18T22:24:49.308Z,10.77
2022-11-18T22:27:18.044Z,9.27
2022-11-18T22:29:46.764Z,9.10
2022-11-18T22:32:15.459Z,9.30
2022-11-18T22:34:47.961Z,9.03
2022-11-18T22:37:19.335Z,8.63
2022-11-18T22:39:49.404Z,8.80
2022-11-18T22:42:35.611Z,8.00
2022-11-18T22:45:04.380Z,8.90
2022-11-18T22:47:33.271Z,8.70
2022-11-18T22:50:01.978Z,8.10
2022-11-18T22:52:30.765Z,8.07
2022-11-18T22:55:00.953Z,9.03
2022-11-18T22:57:35.153Z,7.73
2022-11-18T23:00:04.864Z,8.07
2022-11-18T23:02:33.626Z,7.83
2022-11-18T23:05:02.339Z,8.30
2022-11-18T23:07:31.118Z,8.67
2022-11-18T23:10:01.675Z,8.63
2022-11-18T23:12:48.049Z,8.93
2022-11-18T23:15:16.988Z,8.60
2022-11-18T23:17:45.752Z,8.10
2022-11-18T23:20:14.592Z,8.50
2022-11-18T23:22:43.373Z,8.53
2022-11-18T23:25:13.532Z,8.87
2022-11-18T23:27:42.323Z,9.20
2022-11-18T23:30:12.605Z,8.57
2022-11-18T23:32:41.452Z,8.27
2022-11-18T23:35:10.679Z,8.43
2022-11-18T23:37:39.394Z,9.10
2022-11-18T23:40:10.232Z,8.43
2022-11-18T23:42:40.337Z,8.63
2022-11-18T23:45:10.860Z,8.70
2022-11-18T23:47:39.669Z,8.67
2022-11-18T23:50:09.668Z,8.53
2022-11-18T23:52:41.764Z,9.33
2022-11-18T23:55:11.380Z,8.70
2022-11-18T23:57:41.504Z,9.40
